Terminal Aerodrome Forecast
Issued by NWS Topeka, KS

Home | Current Version | Previous Version | Text Only | Print | Product List | Glossary Off
Versions: 1 2 3 4 5 6 7 8 9 10 11 12

209
FTUS43 KTOP 040539
TAFTOP
TAF
KTOP 040539Z 0406/0506 22003KT P6SM SKC
     FM041600 25012G20KT P6SM FEW250
     FM050000 28003KT P6SM SKC=

USA.gov is the U.S. government's official web portal to all federal, state and local government web resources and services.